sensor_id;sensor_type;location;lat;lon;timestamp;temperature;humidity
54126;DHT22;40360;52.992;6.796;2023-12-04T00:02:14;0.40;99.90
54126;DHT22;40360;52.992;6.796;2023-12-04T00:04:40;0.30;99.90
54126;DHT22;40360;52.992;6.796;2023-12-04T00:07:06;0.40;99.90
54126;DHT22;40360;52.992;6.796;2023-12-04T00:09:32;0.50;99.90
54126;DHT22;40360;52.992;6.796;2023-12-04T00:11:57;0.40;99.90
54126;DHT22;40360;52.992;6.796;2023-12-04T00:14:23;0.40;99.90
54126;DHT22;40360;52.992;6.796;2023-12-04T00:16:49;1.10;99.90
54126;DHT22;40360;52.992;6.796;2023-12-04T00:19:14;0.40;99.90
54126;DHT22;40360;52.992;6.796;2023-12-04T00:21:40;0.60;99.90
54126;DHT22;40360;52.992;6.796;2023-12-04T00:24:05;0.40;99.90
54126;DHT22;40360;52.992;6.796;2023-12-04T00:26:31;0.40;99.90
54126;DHT22;40360;52.992;6.796;2023-12-04T00:28:57;0.40;99.90
54126;DHT22;40360;52.992;6.796;2023-12-04T00:31:22;0.40;99.90
54126;DHT22;40360;52.992;6.796;2023-12-04T00:33:48;0.30;99.90
54126;DHT22;40360;52.992;6.796;2023-12-04T00:36:14;0.40;99.90
54126;DHT22;40360;52.992;6.796;2023-12-04T00:38:40;0.40;99.90
54126;DHT22;40360;52.992;6.796;2023-12-04T00:41:05;0.30;99.90
54126;DHT22;40360;52.992;6.796;2023-12-04T00:43:31;-0.30;99.90
54126;DHT22;40360;52.992;6.796;2023-12-04T00:45:57;0.40;99.90
54126;DHT22;40360;52.992;6.796;2023-12-04T00:48:22;0.40;99.90
54126;DHT22;40360;52.992;6.796;2023-12-04T00:50:48;0.40;99.90
54126;DHT22;40360;52.992;6.796;2023-12-04T00:53:14;0.30;99.90
54126;DHT22;40360;52.992;6.796;2023-12-04T00:55:39;0.40;99.90
54126;DHT22;40360;52.992;6.796;2023-12-04T00:58:05;0.40;99.90
54126;DHT22;40360;52.992;6.796;2023-12-04T01:00:31;0.40;99.90
54126;DHT22;40360;52.992;6.796;2023-12-04T01:02:56;0.30;99.90
54126;DHT22;40360;52.992;6.796;2023-12-04T01:05:22;0.40;99.90
54126;DHT22;40360;52.992;6.796;2023-12-04T01:07:47;0.30;99.90
54126;DHT22;40360;52.992;6.796;2023-12-04T01:10:13;0.30;99.90
54126;DHT22;40360;52.992;6.796;2023-12-04T01:12:39;0.30;99.90
54126;DHT22;40360;52.992;6.796;2023-12-04T01:15:05;0.40;99.90
54126;DHT22;40360;52.992;6.796;2023-12-04T01:17:31;0.40;99.90
54126;DHT22;40360;52.992;6.796;2023-12-04T01:19:56;0.50;99.90
54126;DHT22;40360;52.992;6.796;2023-12-04T01:22:23;0.40;99.90
54126;DHT22;40360;52.992;6.796;2023-12-04T01:24:48;0.30;99.90
54126;DHT22;40360;52.992;6.796;2023-12-04T01:27:14;0.40;99.90
54126;DHT22;40360;52.992;6.796;2023-12-04T01:29:40;0.30;99.90
54126;DHT22;40360;52.992;6.796;2023-12-04T01:32:05;0.40;99.90
54126;DHT22;40360;52.992;6.796;2023-12-04T01:34:31;0.40;99.90
54126;DHT22;40360;52.992;6.796;2023-12-04T01:36:57;0.40;99.90
54126;DHT22;40360;52.992;6.796;2023-12-04T01:39:23;0.40;99.90
54126;DHT22;40360;52.992;6.796;2023-12-04T01:41:49;0.40;99.90
54126;DHT22;40360;52.992;6.796;2023-12-04T01:44:15;0.40;99.90
54126;DHT22;40360;52.992;6.796;2023-12-04T01:46:41;0.40;99.90
54126;DHT22;40360;52.992;6.796;2023-12-04T01:49:07;0.40;99.90
54126;DHT22;40360;52.992;6.796;2023-12-04T01:51:33;0.30;99.90
54126;DHT22;40360;52.992;6.796;2023-12-04T01:54:02;0.30;99.90
54126;DHT22;40360;52.992;6.796;2023-12-04T01:56:29;0.40;99.90
54126;DHT22;40360;52.992;6.796;2023-12-04T01:58:55;0.40;99.90
54126;DHT22;40360;52.992;6.796;2023-12-04T02:01:21;0.30;99.90
54126;DHT22;40360;52.992;6.796;2023-12-04T02:03:47;0.30;99.90
54126;DHT22;40360;52.992;6.796;2023-12-04T02:06:13;0.40;99.90
54126;DHT22;40360;52.992;6.796;2023-12-04T02:08:40;0.40;99.90
54126;DHT22;40360;52.992;6.796;2023-12-04T02:11:06;0.40;99.90
54126;DHT22;40360;52.992;6.796;2023-12-04T02:13:32;0.40;99.90
54126;DHT22;40360;52.992;6.796;2023-12-04T02:16:03;0.40;99.90
54126;DHT22;40360;52.992;6.796;2023-12-04T02:18:32;0.30;99.90
54126;DHT22;40360;52.992;6.796;2023-12-04T02:21:00;0.50;99.90
54126;DHT22;40360;52.992;6.796;2023-12-04T02:23:26;0.40;99.90
54126;DHT22;40360;52.992;6.796;2023-12-04T02:25:57;0.40;99.90
54126;DHT22;40360;52.992;6.796;2023-12-04T02:28:25;0.40;99.90
54126;DHT22;40360;52.992;6.796;2023-12-04T02:30:53;0.30;99.90
54126;DHT22;40360;52.992;6.796;2023-12-04T02:33:23;0.40;99.90
54126;DHT22;40360;52.992;6.796;2023-12-04T02:35:50;0.40;99.90
54126;DHT22;40360;52.992;6.796;2023-12-04T02:38:17;0.40;99.90
54126;DHT22;40360;52.992;6.796;2023-12-04T02:40:43;0.40;99.90
54126;DHT22;40360;52.992;6.796;2023-12-04T02:43:09;0.40;99.90
54126;DHT22;40360;52.992;6.796;2023-12-04T02:45:34;0.40;99.90
54126;DHT22;40360;52.992;6.796;2023-12-04T02:48:00;0.40;99.90
54126;DHT22;40360;52.992;6.796;2023-12-04T02:50:26;0.40;99.90
54126;DHT22;40360;52.992;6.796;2023-12-04T02:52:51;0.40;99.90
54126;DHT22;40360;52.992;6.796;2023-12-04T02:55:17;0.40;99.90
54126;DHT22;40360;52.992;6.796;2023-12-04T02:57:43;0.40;99.90
54126;DHT22;40360;52.992;6.796;2023-12-04T03:00:09;0.50;99.90
54126;DHT22;40360;52.992;6.796;2023-12-04T03:02:35;0.50;99.90
54126;DHT22;40360;52.992;6.796;2023-12-04T03:05:01;0.40;99.90
54126;DHT22;40360;52.992;6.796;2023-12-04T03:07:26;0.50;99.90
54126;DHT22;40360;52.992;6.796;2023-12-04T03:09:52;0.50;99.90
54126;DHT22;40360;52.992;6.796;2023-12-04T03:12:18;0.50;99.90
54126;DHT22;40360;52.992;6.796;2023-12-04T03:14:43;0.50;99.90
54126;DHT22;40360;52.992;6.796;2023-12-04T03:17:10;0.50;99.90
54126;DHT22;40360;52.992;6.796;2023-12-04T03:19:35;0.50;99.90
54126;DHT22;40360;52.992;6.796;2023-12-04T03:22:01;0.50;99.90
54126;DHT22;40360;52.992;6.796;2023-12-04T03:24:27;0.50;99.90
54126;DHT22;40360;52.992;6.796;2023-12-04T03:26:53;0.50;99.90
54126;DHT22;40360;52.992;6.796;2023-12-04T03:29:18;0.50;99.90
54126;DHT22;40360;52.992;6.796;2023-12-04T03:31:44;0.50;99.90
54126;DHT22;40360;52.992;6.796;2023-12-04T03:34:10;0.50;99.90
54126;DHT22;40360;52.992;6.796;2023-12-04T03:36:35;0.50;99.90
54126;DHT22;40360;52.992;6.796;2023-12-04T03:39:01;0.50;99.90
54126;DHT22;40360;52.992;6.796;2023-12-04T03:41:27;0.50;99.90
54126;DHT22;40360;52.992;6.796;2023-12-04T03:43:52;0.50;99.90
54126;DHT22;40360;52.992;6.796;2023-12-04T03:46:18;0.50;99.90
54126;DHT22;40360;52.992;6.796;2023-12-04T03:48:44;0.60;99.90
54126;DHT22;40360;52.992;6.796;2023-12-04T03:51:09;0.60;99.90
54126;DHT22;40360;52.992;6.796;2023-12-04T03:53:36;0.50;99.90
54126;DHT22;40360;52.992;6.796;2023-12-04T03:56:02;0.60;99.90
54126;DHT22;40360;52.992;6.796;2023-12-04T03:58:28;0.50;99.90
54126;DHT22;40360;52.992;6.796;2023-12-04T04:00:53;0.60;99.90
54126;DHT22;40360;52.992;6.796;2023-12-04T04:03:19;0.60;99.90
54126;DHT22;40360;52.992;6.796;2023-12-04T04:05:44;0.60;99.90
54126;DHT22;40360;52.992;6.796;2023-12-04T04:08:10;0.60;99.90
54126;DHT22;40360;52.992;6.796;2023-12-04T04:10:37;0.60;99.90
54126;DHT22;40360;52.992;6.796;2023-12-04T04:13:03;0.60;99.90
54126;DHT22;40360;52.992;6.796;2023-12-04T04:15:28;0.60;99.90
54126;DHT22;40360;52.992;6.796;2023-12-04T04:17:54;0.80;99.90
54126;DHT22;40360;52.992;6.796;2023-12-04T04:20:20;0.60;99.90
54126;DHT22;40360;52.992;6.796;2023-12-04T04:22:48;0.60;99.90
54126;DHT22;40360;52.992;6.796;2023-12-04T04:25:13;0.60;99.90
54126;DHT22;40360;52.992;6.796;2023-12-04T04:27:39;0.60;99.90
54126;DHT22;40360;52.992;6.796;2023-12-04T04:30:05;0.60;99.90
54126;DHT22;40360;52.992;6.796;2023-12-04T04:32:31;0.60;99.90
54126;DHT22;40360;52.992;6.796;2023-12-04T04:34:57;0.60;99.90
54126;DHT22;40360;52.992;6.796;2023-12-04T04:37:22;0.60;99.90
54126;DHT22;40360;52.992;6.796;2023-12-04T04:39:48;0.60;99.90
54126;DHT22;40360;52.992;6.796;2023-12-04T04:42:14;0.70;99.90
54126;DHT22;40360;52.992;6.796;2023-12-04T04:44:40;0.60;99.90
54126;DHT22;40360;52.992;6.796;2023-12-04T04:47:06;0.60;99.90
54126;DHT22;40360;52.992;6.796;2023-12-04T04:49:31;0.60;99.90
54126;DHT22;40360;52.992;6.796;2023-12-04T04:51:57;0.60;99.90
54126;DHT22;40360;52.992;6.796;2023-12-04T04:54:23;0.60;99.90
54126;DHT22;40360;52.992;6.796;2023-12-04T04:56:48;0.60;99.90
54126;DHT22;40360;52.992;6.796;2023-12-04T04:59:14;0.60;99.90
54126;DHT22;40360;52.992;6.796;2023-12-04T05:01:40;0.60;99.90
54126;DHT22;40360;52.992;6.796;2023-12-04T05:04:05;0.60;99.90
54126;DHT22;40360;52.992;6.796;2023-12-04T05:06:31;0.80;99.90
54126;DHT22;40360;52.992;6.796;2023-12-04T05:08:58;0.60;99.90
54126;DHT22;40360;52.992;6.796;2023-12-04T05:11:24;0.60;99.90
54126;DHT22;40360;52.992;6.796;2023-12-04T05:13:50;0.60;99.90
54126;DHT22;40360;52.992;6.796;2023-12-04T05:16:16;0.50;99.90
54126;DHT22;40360;52.992;6.796;2023-12-04T05:18:42;0.60;99.90
54126;DHT22;40360;52.992;6.796;2023-12-04T05:21:09;1.30;99.90
54126;DHT22;40360;52.992;6.796;2023-12-04T05:23:35;0.80;99.90
54126;DHT22;40360;52.992;6.796;2023-12-04T05:26:01;0.60;99.90
54126;DHT22;40360;52.992;6.796;2023-12-04T05:28:27;0.60;99.90
54126;DHT22;40360;52.992;6.796;2023-12-04T05:30:52;0.60;99.90
54126;DHT22;40360;52.992;6.796;2023-12-04T05:33:18;0.70;99.90
54126;DHT22;40360;52.992;6.796;2023-12-04T05:35:44;0.60;99.90
54126;DHT22;40360;52.992;6.796;2023-12-04T05:38:09;0.60;99.90
54126;DHT22;40360;52.992;6.796;2023-12-04T05:40:35;0.60;99.90
54126;DHT22;40360;52.992;6.796;2023-12-04T05:43:01;0.60;99.90
54126;DHT22;40360;52.992;6.796;2023-12-04T05:45:27;0.70;99.90
54126;DHT22;40360;52.992;6.796;2023-12-04T05:47:53;0.60;99.90
54126;DHT22;40360;52.992;6.796;2023-12-04T05:50:19;0.60;99.90
54126;DHT22;40360;52.992;6.796;2023-12-04T05:52:44;0.60;99.90
54126;DHT22;40360;52.992;6.796;2023-12-04T05:55:10;0.60;99.90
54126;DHT22;40360;52.992;6.796;2023-12-04T05:57:39;0.60;99.90
54126;DHT22;40360;52.992;6.796;2023-12-04T06:00:06;0.60;99.90
54126;DHT22;40360;52.992;6.796;2023-12-04T06:02:43;0.60;99.90
54126;DHT22;40360;52.992;6.796;2023-12-04T06:05:09;0.60;99.90
54126;DHT22;40360;52.992;6.796;2023-12-04T06:07:36;0.60;99.90
54126;DHT22;40360;52.992;6.796;2023-12-04T06:10:02;0.70;99.90
54126;DHT22;40360;52.992;6.796;2023-12-04T06:12:30;0.70;99.90
54126;DHT22;40360;52.992;6.796;2023-12-04T06:14:56;0.60;99.90
54126;DHT22;40360;52.992;6.796;2023-12-04T06:17:21;0.70;99.90
54126;DHT22;40360;52.992;6.796;2023-12-04T06:19:47;0.70;99.90
54126;DHT22;40360;52.992;6.796;2023-12-04T06:22:13;0.70;99.90
54126;DHT22;40360;52.992;6.796;2023-12-04T06:24:39;0.70;99.90
54126;DHT22;40360;52.992;6.796;2023-12-04T06:27:06;0.70;99.90
54126;DHT22;40360;52.992;6.796;2023-12-04T06:29:34;0.80;99.90
54126;DHT22;40360;52.992;6.796;2023-12-04T06:32:01;0.80;99.90
54126;DHT22;40360;52.992;6.796;2023-12-04T06:34:27;0.80;99.90
54126;DHT22;40360;52.992;6.796;2023-12-04T06:36:54;0.80;99.90
54126;DHT22;40360;52.992;6.796;2023-12-04T06:39:20;0.80;99.90
54126;DHT22;40360;52.992;6.796;2023-12-04T06:41:46;0.80;99.90
54126;DHT22;40360;52.992;6.796;2023-12-04T06:44:14;0.80;99.90
54126;DHT22;40360;52.992;6.796;2023-12-04T06:46:41;0.80;99.90
54126;DHT22;40360;52.992;6.796;2023-12-04T06:49:11;0.70;99.90
54126;DHT22;40360;52.992;6.796;2023-12-04T06:51:38;0.80;99.90
54126;DHT22;40360;52.992;6.796;2023-12-04T06:54:04;0.70;99.90
54126;DHT22;40360;52.992;6.796;2023-12-04T06:56:29;0.70;99.90
54126;DHT22;40360;52.992;6.796;2023-12-04T06:58:55;0.70;99.90
54126;DHT22;40360;52.992;6.796;2023-12-04T07:01:21;0.70;99.90
54126;DHT22;40360;52.992;6.796;2023-12-04T07:03:48;0.60;99.90
54126;DHT22;40360;52.992;6.796;2023-12-04T07:22:29;0.60;99.90
54126;DHT22;40360;52.992;6.796;2023-12-04T07:24:57;0.60;99.90
54126;DHT22;40360;52.992;6.796;2023-12-04T07:27:22;0.60;99.90
54126;DHT22;40360;52.992;6.796;2023-12-04T07:29:48;0.60;99.90
54126;DHT22;40360;52.992;6.796;2023-12-04T07:32:13;0.60;99.90
54126;DHT22;40360;52.992;6.796;2023-12-04T07:34:39;0.60;99.90
54126;DHT22;40360;52.992;6.796;2023-12-04T07:37:05;0.60;99.90
54126;DHT22;40360;52.992;6.796;2023-12-04T07:39:30;0.60;99.90
54126;DHT22;40360;52.992;6.796;2023-12-04T07:41:56;0.70;99.90
54126;DHT22;40360;52.992;6.796;2023-12-04T07:44:22;0.70;99.90
54126;DHT22;40360;52.992;6.796;2023-12-04T07:46:47;0.70;99.90
54126;DHT22;40360;52.992;6.796;2023-12-04T07:49:13;0.70;99.90
54126;DHT22;40360;52.992;6.796;2023-12-04T07:51:39;0.70;99.90
54126;DHT22;40360;52.992;6.796;2023-12-04T07:54:04;0.70;99.90
54126;DHT22;40360;52.992;6.796;2023-12-04T07:56:30;0.70;99.90
54126;DHT22;40360;52.992;6.796;2023-12-04T07:58:56;0.70;99.90
54126;DHT22;40360;52.992;6.796;2023-12-04T08:01:23;0.70;99.90
54126;DHT22;40360;52.992;6.796;2023-12-04T08:03:49;0.70;99.90
54126;DHT22;40360;52.992;6.796;2023-12-04T08:06:15;0.80;99.90
54126;DHT22;40360;52.992;6.796;2023-12-04T08:08:44;0.80;99.90
54126;DHT22;40360;52.992;6.796;2023-12-04T08:11:10;0.90;99.90
54126;DHT22;40360;52.992;6.796;2023-12-04T08:13:38;0.80;99.90
54126;DHT22;40360;52.992;6.796;2023-12-04T08:16:04;0.80;99.90
54126;DHT22;40360;52.992;6.796;2023-12-04T08:18:29;0.80;99.90
54126;DHT22;40360;52.992;6.796;2023-12-04T08:20:55;0.80;99.90
54126;DHT22;40360;52.992;6.796;2023-12-04T08:23:21;0.90;99.90
54126;DHT22;40360;52.992;6.796;2023-12-04T08:25:46;1.00;99.90
54126;DHT22;40360;52.992;6.796;2023-12-04T08:28:12;0.90;99.90
54126;DHT22;40360;52.992;6.796;2023-12-04T08:30:38;0.90;99.90
54126;DHT22;40360;52.992;6.796;2023-12-04T08:33:04;0.90;99.90
54126;DHT22;40360;52.992;6.796;2023-12-04T08:35:30;0.90;99.90
54126;DHT22;40360;52.992;6.796;2023-12-04T08:37:55;1.10;99.90
54126;DHT22;40360;52.992;6.796;2023-12-04T08:40:21;1.00;99.90
54126;DHT22;40360;52.992;6.796;2023-12-04T08:42:47;1.00;99.90
54126;DHT22;40360;52.992;6.796;2023-12-04T08:45:13;0.90;99.90
54126;DHT22;40360;52.992;6.796;2023-12-04T08:47:39;1.00;99.90
54126;DHT22;40360;52.992;6.796;2023-12-04T08:50:05;1.00;99.90
54126;DHT22;40360;52.992;6.796;2023-12-04T08:52:31;1.00;99.90
54126;DHT22;40360;52.992;6.796;2023-12-04T08:54:57;1.00;99.90
54126;DHT22;40360;52.992;6.796;2023-12-04T08:57:22;1.10;99.90
54126;DHT22;40360;52.992;6.796;2023-12-04T08:59:49;1.10;99.90
54126;DHT22;40360;52.992;6.796;2023-12-04T09:02:14;1.10;99.90
54126;DHT22;40360;52.992;6.796;2023-12-04T09:04:40;1.10;99.90
54126;DHT22;40360;52.992;6.796;2023-12-04T09:07:05;1.10;99.90
54126;DHT22;40360;52.992;6.796;2023-12-04T09:09:31;1.20;99.90
54126;DHT22;40360;52.992;6.796;2023-12-04T09:11:58;1.20;99.90
54126;DHT22;40360;52.992;6.796;2023-12-04T09:14:23;1.30;99.90
54126;DHT22;40360;52.992;6.796;2023-12-04T09:16:49;1.20;99.90
54126;DHT22;40360;52.992;6.796;2023-12-04T09:19:14;1.20;99.90
54126;DHT22;40360;52.992;6.796;2023-12-04T09:21:40;1.30;99.90
54126;DHT22;40360;52.992;6.796;2023-12-04T09:24:06;1.30;99.90
54126;DHT22;40360;52.992;6.796;2023-12-04T09:26:32;1.30;99.90
54126;DHT22;40360;52.992;6.796;2023-12-04T09:28:57;1.40;99.90
54126;DHT22;40360;52.992;6.796;2023-12-04T09:31:23;1.40;99.90
54126;DHT22;40360;52.992;6.796;2023-12-04T09:33:49;1.40;99.90
54126;DHT22;40360;52.992;6.796;2023-12-04T09:36:14;1.40;99.90
54126;DHT22;40360;52.992;6.796;2023-12-04T09:38:40;1.50;99.90
54126;DHT22;40360;52.992;6.796;2023-12-04T09:41:09;1.50;99.90
54126;DHT22;40360;52.992;6.796;2023-12-04T09:43:36;1.50;99.90
54126;DHT22;40360;52.992;6.796;2023-12-04T09:46:02;1.50;99.90
54126;DHT22;40360;52.992;6.796;2023-12-04T09:48:29;1.50;99.90
54126;DHT22;40360;52.992;6.796;2023-12-04T09:50:57;1.60;99.90
54126;DHT22;40360;52.992;6.796;2023-12-04T09:53:24;1.60;99.90
54126;DHT22;40360;52.992;6.796;2023-12-04T09:55:51;1.60;99.90
54126;DHT22;40360;52.992;6.796;2023-12-04T09:58:26;1.60;99.90
54126;DHT22;40360;52.992;6.796;2023-12-04T10:00:53;1.70;99.90
54126;DHT22;40360;52.992;6.796;2023-12-04T10:03:20;1.70;99.90
54126;DHT22;40360;52.992;6.796;2023-12-04T10:05:46;1.80;99.90
54126;DHT22;40360;52.992;6.796;2023-12-04T10:08:12;1.80;99.90
54126;DHT22;40360;52.992;6.796;2023-12-04T10:10:38;1.80;99.90
54126;DHT22;40360;52.992;6.796;2023-12-04T10:13:05;1.90;99.90
54126;DHT22;40360;52.992;6.796;2023-12-04T10:15:30;2.00;99.90
54126;DHT22;40360;52.992;6.796;2023-12-04T10:17:56;2.00;99.90
54126;DHT22;40360;52.992;6.796;2023-12-04T10:20:22;2.00;99.90
54126;DHT22;40360;52.992;6.796;2023-12-04T10:23:00;2.00;99.90
54126;DHT22;40360;52.992;6.796;2023-12-04T10:25:28;2.00;99.90
54126;DHT22;40360;52.992;6.796;2023-12-04T10:28:09;2.00;99.90
54126;DHT22;40360;52.992;6.796;2023-12-04T10:30:35;2.10;99.90
54126;DHT22;40360;52.992;6.796;2023-12-04T10:33:02;2.10;99.90
54126;DHT22;40360;52.992;6.796;2023-12-04T10:35:30;2.10;99.90
54126;DHT22;40360;52.992;6.796;2023-12-04T10:37:59;2.10;99.90
54126;DHT22;40360;52.992;6.796;2023-12-04T10:40:29;2.10;99.90
54126;DHT22;40360;52.992;6.796;2023-12-04T10:43:21;2.10;99.90
54126;DHT22;40360;52.992;6.796;2023-12-04T10:45:50;2.20;99.90
54126;DHT22;40360;52.992;6.796;2023-12-04T10:48:18;2.10;99.90
54126;DHT22;40360;52.992;6.796;2023-12-04T10:50:48;2.10;99.90
54126;DHT22;40360;52.992;6.796;2023-12-04T10:53:15;2.10;99.90
54126;DHT22;40360;52.992;6.796;2023-12-04T10:55:43;2.20;99.90
54126;DHT22;40360;52.992;6.796;2023-12-04T10:58:13;2.20;99.90
54126;DHT22;40360;52.992;6.796;2023-12-04T11:03:09;2.20;99.90
54126;DHT22;40360;52.992;6.796;2023-12-04T11:05:39;2.20;99.90
54126;DHT22;40360;52.992;6.796;2023-12-04T11:08:07;2.20;99.90
54126;DHT22;40360;52.992;6.796;2023-12-04T11:10:56;2.20;99.90
54126;DHT22;40360;52.992;6.796;2023-12-04T11:13:27;2.20;99.90
54126;DHT22;40360;52.992;6.796;2023-12-04T11:15:59;2.20;99.90
54126;DHT22;40360;52.992;6.796;2023-12-04T11:18:26;2.20;99.90
54126;DHT22;40360;52.992;6.796;2023-12-04T11:21:06;2.20;99.90
54126;DHT22;40360;52.992;6.796;2023-12-04T11:23:33;2.20;99.90
54126;DHT22;40360;52.992;6.796;2023-12-04T11:26:00;2.20;99.90
54126;DHT22;40360;52.992;6.796;2023-12-04T11:28:26;2.20;99.90
54126;DHT22;40360;52.992;6.796;2023-12-04T11:30:53;2.20;99.90
54126;DHT22;40360;52.992;6.796;2023-12-04T11:33:20;2.20;99.90
54126;DHT22;40360;52.992;6.796;2023-12-04T11:35:45;2.40;99.90
54126;DHT22;40360;52.992;6.796;2023-12-04T11:38:14;2.20;99.90
54126;DHT22;40360;52.992;6.796;2023-12-04T11:40:41;2.20;99.90
54126;DHT22;40360;52.992;6.796;2023-12-04T11:43:28;2.30;99.90
54126;DHT22;40360;52.992;6.796;2023-12-04T11:46:10;3.10;99.90
54126;DHT22;40360;52.992;6.796;2023-12-04T11:48:39;2.30;99.90
54126;DHT22;40360;52.992;6.796;2023-12-04T11:51:08;2.30;99.90
54126;DHT22;40360;52.992;6.796;2023-12-04T11:53:38;2.30;99.90
54126;DHT22;40360;52.992;6.796;2023-12-04T11:56:12;2.40;99.90
54126;DHT22;40360;52.992;6.796;2023-12-04T11:58:45;2.40;99.90
54126;DHT22;40360;52.992;6.796;2023-12-04T12:01:11;2.40;99.90
54126;DHT22;40360;52.992;6.796;2023-12-04T12:03:37;2.50;99.90
54126;DHT22;40360;52.992;6.796;2023-12-04T12:06:04;2.50;99.90
54126;DHT22;40360;52.992;6.796;2023-12-04T12:08:30;2.50;99.90
54126;DHT22;40360;52.992;6.796;2023-12-04T12:10:56;2.50;99.90
54126;DHT22;40360;52.992;6.796;2023-12-04T12:13:23;2.50;99.90
54126;DHT22;40360;52.992;6.796;2023-12-04T12:15:51;2.50;99.90
54126;DHT22;40360;52.992;6.796;2023-12-04T12:18:18;2.50;99.90
54126;DHT22;40360;52.992;6.796;2023-12-04T12:20:44;2.60;99.90
54126;DHT22;40360;52.992;6.796;2023-12-04T12:23:09;2.60;99.90
54126;DHT22;40360;52.992;6.796;2023-12-04T12:25:36;2.60;99.90
54126;DHT22;40360;52.992;6.796;2023-12-04T12:28:05;2.60;99.90
54126;DHT22;40360;52.992;6.796;2023-12-04T12:30:31;2.60;99.90
54126;DHT22;40360;52.992;6.796;2023-12-04T12:32:57;2.60;99.90
54126;DHT22;40360;52.992;6.796;2023-12-04T12:35:23;2.70;99.90
54126;DHT22;40360;52.992;6.796;2023-12-04T12:37:50;2.70;99.90
54126;DHT22;40360;52.992;6.796;2023-12-04T12:40:23;2.70;99.90
54126;DHT22;40360;52.992;6.796;2023-12-04T12:42:49;2.70;99.90
54126;DHT22;40360;52.992;6.796;2023-12-04T12:45:16;2.70;99.90
54126;DHT22;40360;52.992;6.796;2023-12-04T12:47:43;2.70;99.90
54126;DHT22;40360;52.992;6.796;2023-12-04T12:50:12;2.70;99.90
54126;DHT22;40360;52.992;6.796;2023-12-04T12:52:43;2.70;99.90
54126;DHT22;40360;52.992;6.796;2023-12-04T12:55:08;2.70;99.90
54126;DHT22;40360;52.992;6.796;2023-12-04T12:57:35;2.70;99.90
54126;DHT22;40360;52.992;6.796;2023-12-04T13:00:01;2.70;99.90
54126;DHT22;40360;52.992;6.796;2023-12-04T13:02:26;2.70;99.90
54126;DHT22;40360;52.992;6.796;2023-12-04T13:04:52;2.60;99.90
54126;DHT22;40360;52.992;6.796;2023-12-04T13:07:18;2.60;99.90
54126;DHT22;40360;52.992;6.796;2023-12-04T13:09:44;2.60;99.90
54126;DHT22;40360;52.992;6.796;2023-12-04T13:12:10;2.60;99.90
54126;DHT22;40360;52.992;6.796;2023-12-04T13:14:37;2.60;99.90
54126;DHT22;40360;52.992;6.796;2023-12-04T13:17:03;2.60;99.90
54126;DHT22;40360;52.992;6.796;2023-12-04T13:19:29;2.60;99.90
54126;DHT22;40360;52.992;6.796;2023-12-04T13:21:57;2.60;99.90
54126;DHT22;40360;52.992;6.796;2023-12-04T13:24:23;2.60;99.90
54126;DHT22;40360;52.992;6.796;2023-12-04T13:26:48;2.50;99.90
54126;DHT22;40360;52.992;6.796;2023-12-04T13:29:14;2.60;99.90
54126;DHT22;40360;52.992;6.796;2023-12-04T13:31:43;2.50;99.90
54126;DHT22;40360;52.992;6.796;2023-12-04T13:34:08;2.50;99.90
54126;DHT22;40360;52.992;6.796;2023-12-04T13:36:34;2.50;99.90
54126;DHT22;40360;52.992;6.796;2023-12-04T13:39:01;2.50;99.90
54126;DHT22;40360;52.992;6.796;2023-12-04T13:41:30;2.50;99.90
54126;DHT22;40360;52.992;6.796;2023-12-04T13:44:15;2.40;99.90
54126;DHT22;40360;52.992;6.796;2023-12-04T13:46:41;2.40;99.90
54126;DHT22;40360;52.992;6.796;2023-12-04T13:49:06;2.40;99.90
54126;DHT22;40360;52.992;6.796;2023-12-04T13:51:32;2.40;99.90
54126;DHT22;40360;52.992;6.796;2023-12-04T13:53:59;2.40;99.90
54126;DHT22;40360;52.992;6.796;2023-12-04T13:56:35;2.40;99.90
54126;DHT22;40360;52.992;6.796;2023-12-04T13:59:10;2.40;99.90
54126;DHT22;40360;52.992;6.796;2023-12-04T14:01:44;2.50;99.90
54126;DHT22;40360;52.992;6.796;2023-12-04T14:04:10;2.30;99.90
54126;DHT22;40360;52.992;6.796;2023-12-04T14:06:35;2.40;99.90
54126;DHT22;40360;52.992;6.796;2023-12-04T14:09:01;2.20;99.90
54126;DHT22;40360;52.992;6.796;2023-12-04T14:11:28;2.20;99.90
54126;DHT22;40360;52.992;6.796;2023-12-04T14:13:53;2.20;99.90
54126;DHT22;40360;52.992;6.796;2023-12-04T14:16:20;2.10;99.90
54126;DHT22;40360;52.992;6.796;2023-12-04T14:18:45;2.10;99.90
54126;DHT22;40360;52.992;6.796;2023-12-04T14:21:11;2.10;99.90
54126;DHT22;40360;52.992;6.796;2023-12-04T14:23:37;2.30;99.90
54126;DHT22;40360;52.992;6.796;2023-12-04T14:26:03;2.10;99.90
54126;DHT22;40360;52.992;6.796;2023-12-04T14:28:29;2.00;99.90
54126;DHT22;40360;52.992;6.796;2023-12-04T14:30:55;2.00;99.90
54126;DHT22;40360;52.992;6.796;2023-12-04T14:33:21;2.00;99.90
54126;DHT22;40360;52.992;6.796;2023-12-04T14:35:47;2.00;99.90
54126;DHT22;40360;52.992;6.796;2023-12-04T14:38:13;2.00;99.90
54126;DHT22;40360;52.992;6.796;2023-12-04T14:40:38;1.90;99.90
54126;DHT22;40360;52.992;6.796;2023-12-04T14:43:05;1.90;99.90
54126;DHT22;40360;52.992;6.796;2023-12-04T14:45:37;1.90;99.90
54126;DHT22;40360;52.992;6.796;2023-12-04T14:48:03;1.90;99.90
54126;DHT22;40360;52.992;6.796;2023-12-04T14:50:33;1.80;99.90
54126;DHT22;40360;52.992;6.796;2023-12-04T14:53:01;1.90;99.90
54126;DHT22;40360;52.992;6.796;2023-12-04T14:55:41;1.80;99.90
54126;DHT22;40360;52.992;6.796;2023-12-04T14:58:10;1.80;99.90
54126;DHT22;40360;52.992;6.796;2023-12-04T15:00:38;1.80;99.90
54126;DHT22;40360;52.992;6.796;2023-12-04T15:03:16;1.90;99.90
54126;DHT22;40360;52.992;6.796;2023-12-04T15:05:45;1.90;99.90
54126;DHT22;40360;52.992;6.796;2023-12-04T15:08:29;1.70;99.90
54126;DHT22;40360;52.992;6.796;2023-12-04T15:11:15;1.70;99.90
54126;DHT22;40360;52.992;6.796;2023-12-04T15:14:06;1.70;99.90
54126;DHT22;40360;52.992;6.796;2023-12-04T15:16:50;1.70;99.90
54126;DHT22;40360;52.992;6.796;2023-12-04T15:19:27;1.60;99.90
54126;DHT22;40360;52.992;6.796;2023-12-04T15:22:08;1.60;99.90
54126;DHT22;40360;52.992;6.796;2023-12-04T15:24:35;1.60;99.90
54126;DHT22;40360;52.992;6.796;2023-12-04T15:27:01;1.60;99.90
54126;DHT22;40360;52.992;6.796;2023-12-04T15:29:28;1.50;99.90
54126;DHT22;40360;52.992;6.796;2023-12-04T15:31:56;1.50;99.90
54126;DHT22;40360;52.992;6.796;2023-12-04T15:34:21;1.50;99.90
54126;DHT22;40360;52.992;6.796;2023-12-04T15:36:47;1.50;99.90
54126;DHT22;40360;52.992;6.796;2023-12-04T15:39:13;1.50;99.90
54126;DHT22;40360;52.992;6.796;2023-12-04T15:41:41;1.50;99.90
54126;DHT22;40360;52.992;6.796;2023-12-04T15:44:07;1.60;99.90
54126;DHT22;40360;52.992;6.796;2023-12-04T15:46:34;1.50;99.90
54126;DHT22;40360;52.992;6.796;2023-12-04T15:48:59;1.50;99.90
54126;DHT22;40360;52.992;6.796;2023-12-04T15:51:25;1.50;99.90
54126;DHT22;40360;52.992;6.796;2023-12-04T15:53:51;1.50;99.90
54126;DHT22;40360;52.992;6.796;2023-12-04T15:56:17;1.50;99.90
54126;DHT22;40360;52.992;6.796;2023-12-04T15:58:43;1.50;99.90
54126;DHT22;40360;52.992;6.796;2023-12-04T16:01:09;1.50;99.90
54126;DHT22;40360;52.992;6.796;2023-12-04T16:03:34;1.50;99.90